createdAt,value
2018-11-06T20:23:59.011Z,10.78
2018-11-06T20:30:01.496Z,33.63
2018-11-06T20:32:30.228Z,32.55
2018-11-06T20:34:59.837Z,41.85
2018-11-06T20:37:29.312Z,40.17
2018-11-06T20:39:57.997Z,40.10
2018-11-06T20:42:27.613Z,41.18
2018-11-06T20:44:56.470Z,35.77
2018-11-06T20:47:25.129Z,35.33
2018-11-06T20:49:54.029Z,33.43
2018-11-06T20:52:23.673Z,33.43
2018-11-06T20:54:53.384Z,36.77
2018-11-06T20:57:22.120Z,32.53
2018-11-06T20:59:51.148Z,41.53
2018-11-06T21:02:20.061Z,35.40
2018-11-06T21:04:48.753Z,38.90
2018-11-06T21:07:19.117Z,56.40
2018-11-06T21:09:47.825Z,43.10
2018-11-06T21:12:16.543Z,41.33
2018-11-06T21:14:45.282Z,58.03
2018-11-06T21:17:14.038Z,41.37
2018-11-06T21:19:42.794Z,47.83
2018-11-06T21:22:12.323Z,45.23
2018-11-06T21:24:41.119Z,48.53
2018-11-06T21:27:10.115Z,50.43
2018-11-06T21:29:38.718Z,50.03
2018-11-06T21:32:09.040Z,49.67
2018-11-06T21:34:37.724Z,37.27
2018-11-06T21:37:06.461Z,46.00
2018-11-06T21:39:35.232Z,40.53
2018-11-06T21:42:04.061Z,44.03
2018-11-06T21:44:32.753Z,46.07
2018-11-06T21:47:01.428Z,45.00
2018-11-06T21:49:30.135Z,50.47
2018-11-06T21:51:59.631Z,52.33
2018-11-06T21:54:28.325Z,56.63
2018-11-06T21:56:56.964Z,44.30
2018-11-06T21:59:25.616Z,52.43
2018-11-06T22:01:54.942Z,43.07
2018-11-06T22:04:23.582Z,48.40
2018-11-06T22:06:52.386Z,55.37
2018-11-06T22:09:21.032Z,51.10
2018-11-06T22:11:49.646Z,54.57
2018-11-06T22:14:18.277Z,50.83
2018-11-06T22:16:46.848Z,54.10
2018-11-06T22:19:15.498Z,47.07
2018-11-06T22:21:44.215Z,49.77
2018-11-06T22:24:12.794Z,47.33
2018-11-06T22:26:41.444Z,47.53
2018-11-06T22:29:10.109Z,50.10
2018-11-06T22:31:38.813Z,54.00
2018-11-06T22:34:07.711Z,49.83
2018-11-06T22:36:36.340Z,53.00
2018-11-06T22:39:07.414Z,53.17
2018-11-06T22:41:36.168Z,51.30
2018-11-06T22:44:05.005Z,48.43
2018-11-06T22:46:33.618Z,52.57
2018-11-06T22:49:02.263Z,46.67
2018-11-06T22:51:30.978Z,47.17
2018-11-06T22:53:59.603Z,47.20
2018-11-06T22:56:28.395Z,48.13
2018-11-06T22:58:57.177Z,46.83
2018-11-06T23:01:26.212Z,46.13
2018-11-06T23:03:55.362Z,46.40
2018-11-06T23:06:24.240Z,48.50
2018-11-06T23:08:52.904Z,45.40
2018-11-06T23:11:21.661Z,46.70
2018-11-06T23:13:50.335Z,45.83
2018-11-06T23:16:18.949Z,43.90
2018-11-06T23:18:47.672Z,43.90
2018-11-06T23:21:16.299Z,45.33
2018-11-06T23:23:45.068Z,44.90
2018-11-06T23:26:13.839Z,45.57
2018-11-06T23:28:42.453Z,44.00
2018-11-06T23:31:11.093Z,46.47
2018-11-06T23:33:39.727Z,50.47
2018-11-06T23:36:08.860Z,49.53
2018-11-06T23:38:37.636Z,50.10
2018-11-06T23:41:06.736Z,53.83
2018-11-06T23:43:35.405Z,62.07
2018-11-06T23:46:04.281Z,66.30
2018-11-06T23:48:33.161Z,63.67
2018-11-06T23:51:01.907Z,61.50
2018-11-06T23:53:30.653Z,60.03
2018-11-06T23:55:59.740Z,58.60
2018-11-06T23:58:28.477Z,60.30
